sensor_id;sensor_type;location;lat;lon;timestamp;pressure;altitude;pressure_sealevel;temperature;humidity
38303;BME280;24103;42.454;27.400;2022-09-09T00:01:56;101000.88;;;16.69;100.00
38303;BME280;24103;42.454;27.400;2022-09-09T00:09:50;100996.44;;;16.45;100.00
38303;BME280;24103;42.454;27.400;2022-09-09T00:14:54;100992.75;;;16.35;100.00
38303;BME280;24103;42.454;27.400;2022-09-09T00:20:03;100990.34;;;16.32;100.00
38303;BME280;24103;42.454;27.400;2022-09-09T00:22:32;100998.44;;;16.30;100.00
38303;BME280;24103;42.454;27.400;2022-09-09T00:25:30;100996.41;;;16.34;100.00
38303;BME280;24103;42.454;27.400;2022-09-09T00:27:59;100998.94;;;16.35;100.00
38303;BME280;24103;42.454;27.400;2022-09-09T00:30:29;100990.56;;;16.29;100.00
38303;BME280;24103;42.454;27.400;2022-09-09T00:33:03;100999.34;;;16.18;100.00
38303;BME280;24103;42.454;27.400;2022-09-09T00:35:40;100993.28;;;16.16;100.00
38303;BME280;24103;42.454;27.400;2022-09-09T00:40:51;100982.03;;;17.62;100.00
38303;BME280;24103;42.454;27.400;2022-09-09T00:43:30;100988.81;;;17.66;100.00
38303;BME280;24103;42.454;27.400;2022-09-09T00:57:48;100991.94;;;17.83;100.00
38303;BME280;24103;42.454;27.400;2022-09-09T01:03:06;100992.97;;;18.14;100.00
38303;BME280;24103;42.454;27.400;2022-09-09T01:11:25;100985.31;;;17.55;100.00
38303;BME280;24103;42.454;27.400;2022-09-09T01:14:14;100995.28;;;17.53;100.00
38303;BME280;24103;42.454;27.400;2022-09-09T01:16:45;100994.69;;;17.38;100.00
38303;BME280;24103;42.454;27.400;2022-09-09T01:19:18;100993.69;;;17.39;100.00
38303;BME280;24103;42.454;27.400;2022-09-09T01:21:56;100994.41;;;17.52;100.00
38303;BME280;24103;42.454;27.400;2022-09-09T01:24:45;100987.16;;;17.31;100.00
38303;BME280;24103;42.454;27.400;2022-09-09T01:27:17;100975.75;;;17.29;100.00
38303;BME280;24103;42.454;27.400;2022-09-09T01:29:43;100979.97;;;17.32;100.00
38303;BME280;24103;42.454;27.400;2022-09-09T01:35:03;100975.50;;;17.21;100.00
38303;BME280;24103;42.454;27.400;2022-09-09T01:37:29;100987.38;;;17.17;100.00
38303;BME280;24103;42.454;27.400;2022-09-09T01:39:54;100982.28;;;17.14;100.00
38303;BME280;24103;42.454;27.400;2022-09-09T01:42:20;100985.06;;;17.24;100.00
38303;BME280;24103;42.454;27.400;2022-09-09T01:44:45;100978.00;;;17.68;100.00
38303;BME280;24103;42.454;27.400;2022-09-09T01:47:11;100984.94;;;17.71;100.00
38303;BME280;24103;42.454;27.400;2022-09-09T01:49:36;100983.00;;;17.61;100.00
38303;BME280;24103;42.454;27.400;2022-09-09T01:52:02;100984.34;;;17.33;100.00
38303;BME280;24103;42.454;27.400;2022-09-09T01:54:31;100991.38;;;17.57;100.00
38303;BME280;24103;42.454;27.400;2022-09-09T01:57:12;100991.13;;;17.48;100.00
38303;BME280;24103;42.454;27.400;2022-09-09T02:08:18;100990.03;;;17.06;100.00
38303;BME280;24103;42.454;27.400;2022-09-09T02:11:13;100988.25;;;17.06;100.00
38303;BME280;24103;42.454;27.400;2022-09-09T02:13:39;100992.59;;;16.96;100.00
38303;BME280;24103;42.454;27.400;2022-09-09T02:21:06;100989.56;;;17.12;100.00
38303;BME280;24103;42.454;27.400;2022-09-09T02:23:34;100983.88;;;17.17;100.00
38303;BME280;24103;42.454;27.400;2022-09-09T02:26:00;100988.50;;;17.15;100.00
38303;BME280;24103;42.454;27.400;2022-09-09T02:28:30;100977.56;;;17.18;100.00
38303;BME280;24103;42.454;27.400;2022-09-09T02:30:56;100984.34;;;17.22;100.00
38303;BME280;24103;42.454;27.400;2022-09-09T02:33:27;100985.59;;;17.18;100.00
38303;BME280;24103;42.454;27.400;2022-09-09T02:35:55;100984.34;;;16.88;100.00
38303;BME280;24103;42.454;27.400;2022-09-09T02:38:28;100974.63;;;16.87;100.00
38303;BME280;24103;42.454;27.400;2022-09-09T02:40:54;100978.34;;;16.73;100.00
38303;BME280;24103;42.454;27.400;2022-09-09T02:43:20;100979.84;;;16.53;100.00
38303;BME280;24103;42.454;27.400;2022-09-09T02:46:01;100973.66;;;16.52;100.00
38303;BME280;24103;42.454;27.400;2022-09-09T02:49:09;100981.31;;;16.57;100.00
38303;BME280;24103;42.454;27.400;2022-09-09T02:51:57;100978.44;;;16.60;100.00
38303;BME280;24103;42.454;27.400;2022-09-09T02:54:31;100981.25;;;16.34;100.00
38303;BME280;24103;42.454;27.400;2022-09-09T02:57:04;100989.84;;;16.38;100.00
38303;BME280;24103;42.454;27.400;2022-09-09T02:59:31;100981.25;;;16.34;100.00
38303;BME280;24103;42.454;27.400;2022-09-09T03:01:57;100982.34;;;16.32;100.00
38303;BME280;24103;42.454;27.400;2022-09-09T03:04:23;100980.75;;;16.29;100.00
38303;BME280;24103;42.454;27.400;2022-09-09T03:06:50;100982.69;;;16.27;100.00
38303;BME280;24103;42.454;27.400;2022-09-09T03:09:15;100983.22;;;16.44;100.00
38303;BME280;24103;42.454;27.400;2022-09-09T03:11:41;100981.06;;;16.25;100.00
38303;BME280;24103;42.454;27.400;2022-09-09T03:14:06;100989.91;;;16.14;100.00
38303;BME280;24103;42.454;27.400;2022-09-09T03:16:32;100991.41;;;16.05;100.00
38303;BME280;24103;42.454;27.400;2022-09-09T03:19:00;100991.66;;;16.02;100.00
38303;BME280;24103;42.454;27.400;2022-09-09T03:21:26;100988.75;;;16.05;100.00
38303;BME280;24103;42.454;27.400;2022-09-09T03:23:52;100997.66;;;16.17;100.00
38303;BME280;24103;42.454;27.400;2022-09-09T03:26:17;101004.91;;;16.15;100.00
38303;BME280;24103;42.454;27.400;2022-09-09T03:28:43;101000.00;;;15.97;100.00
38303;BME280;24103;42.454;27.400;2022-09-09T03:31:10;101010.25;;;15.91;100.00
38303;BME280;24103;42.454;27.400;2022-09-09T03:33:38;101009.97;;;15.82;100.00
38303;BME280;24103;42.454;27.400;2022-09-09T03:36:05;101011.84;;;15.80;100.00
38303;BME280;24103;42.454;27.400;2022-09-09T03:38:30;101013.97;;;15.88;100.00
38303;BME280;24103;42.454;27.400;2022-09-09T03:40:57;101008.31;;;15.93;100.00
38303;BME280;24103;42.454;27.400;2022-09-09T03:43:24;101003.59;;;15.96;100.00
38303;BME280;24103;42.454;27.400;2022-09-09T03:45:50;101007.97;;;15.97;100.00
38303;BME280;24103;42.454;27.400;2022-09-09T03:48:17;101000.50;;;16.02;100.00
38303;BME280;24103;42.454;27.400;2022-09-09T03:50:50;101000.38;;;16.04;100.00
38303;BME280;24103;42.454;27.400;2022-09-09T03:53:17;100998.34;;;16.08;100.00
38303;BME280;24103;42.454;27.400;2022-09-09T03:55:45;101001.13;;;16.06;100.00
38303;BME280;24103;42.454;27.400;2022-09-09T03:58:12;101000.66;;;16.12;100.00
38303;BME280;24103;42.454;27.400;2022-09-09T04:00:38;100998.41;;;16.19;100.00
38303;BME280;24103;42.454;27.400;2022-09-09T04:03:08;100991.28;;;16.31;100.00
38303;BME280;24103;42.454;27.400;2022-09-09T04:05:33;100992.47;;;16.98;99.66
38303;BME280;24103;42.454;27.400;2022-09-09T04:07:59;100992.00;;;17.15;95.31
38303;BME280;24103;42.454;27.400;2022-09-09T04:10:24;100985.56;;;17.52;96.19
38303;BME280;24103;42.454;27.400;2022-09-09T04:12:50;100986.78;;;18.14;90.91
38303;BME280;24103;42.454;27.400;2022-09-09T04:15:15;100985.44;;;18.40;87.03
38303;BME280;24103;42.454;27.400;2022-09-09T04:17:41;100992.84;;;18.69;86.53
38303;BME280;24103;42.454;27.400;2022-09-09T04:20:06;100980.38;;;19.01;85.22
38303;BME280;24103;42.454;27.400;2022-09-09T04:22:36;100969.69;;;19.41;81.00
38303;BME280;24103;42.454;27.400;2022-09-09T04:25:05;100977.88;;;19.49;80.71
38303;BME280;24103;42.454;27.400;2022-09-09T04:27:31;100987.03;;;18.85;84.39
38303;BME280;24103;42.454;27.400;2022-09-09T04:29:57;100997.00;;;18.62;86.73
38303;BME280;24103;42.454;27.400;2022-09-09T04:32:23;100982.78;;;19.04;87.26
38303;BME280;24103;42.454;27.400;2022-09-09T04:34:50;100978.47;;;20.33;79.25
38303;BME280;24103;42.454;27.400;2022-09-09T04:37:15;100976.44;;;21.21;72.79
38303;BME280;24103;42.454;27.400;2022-09-09T04:39:41;100981.41;;;22.17;68.46
38303;BME280;24103;42.454;27.400;2022-09-09T04:42:07;100958.56;;;24.03;56.86
38303;BME280;24103;42.454;27.400;2022-09-09T04:44:32;100952.13;;;24.87;53.37
38303;BME280;24103;42.454;27.400;2022-09-09T04:46:58;100946.75;;;25.66;50.66
38303;BME280;24103;42.454;27.400;2022-09-09T04:49:23;100933.38;;;26.57;47.55
38303;BME280;24103;42.454;27.400;2022-09-09T04:51:49;100926.97;;;27.90;44.39
38303;BME280;24103;42.454;27.400;2022-09-09T04:54:15;100921.91;;;28.87;40.52
38303;BME280;24103;42.454;27.400;2022-09-09T04:56:40;100915.22;;;29.86;38.59
38303;BME280;24103;42.454;27.400;2022-09-09T04:59:07;100902.47;;;30.47;37.01
38303;BME280;24103;42.454;27.400;2022-09-09T05:01:33;100902.78;;;31.04;34.97
38303;BME280;24103;42.454;27.400;2022-09-09T05:03:59;100899.78;;;31.19;34.21
38303;BME280;24103;42.454;27.400;2022-09-09T05:06:24;100895.25;;;32.08;32.50
38303;BME280;24103;42.454;27.400;2022-09-09T05:08:50;100897.94;;;32.15;32.47
38303;BME280;24103;42.454;27.400;2022-09-09T05:13:43;100883.25;;;31.77;32.57
38303;BME280;24103;42.454;27.400;2022-09-09T05:16:09;100889.47;;;31.59;32.99
38303;BME280;24103;42.454;27.400;2022-09-09T05:18:39;100884.34;;;31.76;32.50
38303;BME280;24103;42.454;27.400;2022-09-09T05:21:06;100879.91;;;32.07;32.26
38303;BME280;24103;42.454;27.400;2022-09-09T05:23:34;100863.38;;;32.46;31.74
38303;BME280;24103;42.454;27.400;2022-09-09T05:26:01;100857.13;;;32.39;31.42
38303;BME280;24103;42.454;27.400;2022-09-09T05:28:27;100852.81;;;33.05;30.28
38303;BME280;24103;42.454;27.400;2022-09-09T05:31:02;100851.28;;;33.39;30.05
38303;BME280;24103;42.454;27.400;2022-09-09T05:33:33;100845.03;;;34.52;28.63
38303;BME280;24103;42.454;27.400;2022-09-09T05:36:02;100836.88;;;34.69;27.78
38303;BME280;24103;42.454;27.400;2022-09-09T05:38:29;100836.69;;;34.47;27.96
38303;BME280;24103;42.454;27.400;2022-09-09T05:40:55;100845.72;;;33.76;28.60
38303;BME280;24103;42.454;27.400;2022-09-09T05:43:23;100842.03;;;34.42;28.47
38303;BME280;24103;42.454;27.400;2022-09-09T05:46:08;100846.66;;;35.46;26.98
38303;BME280;24103;42.454;27.400;2022-09-09T05:48:36;100842.34;;;35.21;27.24
38303;BME280;24103;42.454;27.400;2022-09-09T05:51:03;100845.88;;;36.13;26.01
38303;BME280;24103;42.454;27.400;2022-09-09T05:53:29;100845.94;;;36.02;25.93
38303;BME280;24103;42.454;27.400;2022-09-09T05:56:07;100838.06;;;37.11;25.11
38303;BME280;24103;42.454;27.400;2022-09-09T05:58:33;100835.03;;;37.34;24.46
38303;BME280;24103;42.454;27.400;2022-09-09T06:01:04;100836.13;;;37.33;25.17
38303;BME280;24103;42.454;27.400;2022-09-09T06:03:29;100841.19;;;37.47;24.50
38303;BME280;24103;42.454;27.400;2022-09-09T06:06:03;100841.72;;;37.71;24.37
38303;BME280;24103;42.454;27.400;2022-09-09T06:08:33;100841.94;;;37.37;24.25
38303;BME280;24103;42.454;27.400;2022-09-09T06:11:03;100843.88;;;37.36;24.36
38303;BME280;24103;42.454;27.400;2022-09-09T06:13:30;100858.13;;;37.06;25.07
38303;BME280;24103;42.454;27.400;2022-09-09T06:15:55;100850.78;;;37.17;24.99
38303;BME280;24103;42.454;27.400;2022-09-09T06:18:21;100858.50;;;37.15;25.10
38303;BME280;24103;42.454;27.400;2022-09-09T06:20:57;100858.50;;;36.93;25.49
38303;BME280;24103;42.454;27.400;2022-09-09T06:23:23;100851.09;;;38.07;24.32
38303;BME280;24103;42.454;27.400;2022-09-09T06:25:49;100851.13;;;38.55;23.80
38303;BME280;24103;42.454;27.400;2022-09-09T06:28:16;100849.25;;;37.80;24.11
38303;BME280;24103;42.454;27.400;2022-09-09T06:30:42;100852.63;;;38.25;23.91
38303;BME280;24103;42.454;27.400;2022-09-09T06:33:08;100849.88;;;38.83;23.35
38303;BME280;24103;42.454;27.400;2022-09-09T06:35:35;100860.59;;;38.22;23.80
38303;BME280;24103;42.454;27.400;2022-09-09T06:38:01;100862.78;;;39.51;22.97
38303;BME280;24103;42.454;27.400;2022-09-09T06:40:26;100862.75;;;39.36;22.75
38303;BME280;24103;42.454;27.400;2022-09-09T06:42:51;100862.50;;;39.63;22.59
38303;BME280;24103;42.454;27.400;2022-09-09T06:45:17;100858.31;;;39.40;22.76
38303;BME280;24103;42.454;27.400;2022-09-09T06:47:43;100862.25;;;39.75;22.88
38303;BME280;24103;42.454;27.400;2022-09-09T06:50:09;100857.81;;;40.05;22.42
38303;BME280;24103;42.454;27.400;2022-09-09T06:52:35;100862.63;;;39.00;22.94
38303;BME280;24103;42.454;27.400;2022-09-09T06:55:01;100866.81;;;38.07;24.51
38303;BME280;24103;42.454;27.400;2022-09-09T06:57:28;100864.34;;;39.06;23.38
38303;BME280;24103;42.454;27.400;2022-09-09T06:59:53;100869.72;;;38.75;23.85
38303;BME280;24103;42.454;27.400;2022-09-09T07:02:19;100875.78;;;39.56;22.80
38303;BME280;24103;42.454;27.400;2022-09-09T07:04:45;100871.09;;;39.82;22.73
38303;BME280;24103;42.454;27.400;2022-09-09T07:07:10;100869.72;;;39.95;22.09
38303;BME280;24103;42.454;27.400;2022-09-09T07:09:38;100861.81;;;41.29;19.97
38303;BME280;24103;42.454;27.400;2022-09-09T07:12:05;100862.25;;;41.41;19.74
38303;BME280;24103;42.454;27.400;2022-09-09T07:14:31;100858.22;;;41.23;19.51
38303;BME280;24103;42.454;27.400;2022-09-09T07:16:58;100846.81;;;41.65;19.02
38303;BME280;24103;42.454;27.400;2022-09-09T07:19:23;100854.25;;;40.90;19.97
38303;BME280;24103;42.454;27.400;2022-09-09T07:21:49;100843.13;;;41.00;18.66
38303;BME280;24103;42.454;27.400;2022-09-09T07:24:14;100852.09;;;41.21;18.98
38303;BME280;24103;42.454;27.400;2022-09-09T07:26:40;100836.69;;;42.13;16.52
38303;BME280;24103;42.454;27.400;2022-09-09T07:29:07;100843.19;;;41.69;18.74
38303;BME280;24103;42.454;27.400;2022-09-09T07:31:35;100843.31;;;41.88;18.30
38303;BME280;24103;42.454;27.400;2022-09-09T07:34:02;100843.44;;;40.88;18.58
38303;BME280;24103;42.454;27.400;2022-09-09T07:36:31;100837.66;;;41.30;18.55
38303;BME280;24103;42.454;27.400;2022-09-09T07:38:59;100839.00;;;40.02;19.68
38303;BME280;24103;42.454;27.400;2022-09-09T07:41:37;100839.25;;;40.10;19.62
38303;BME280;24103;42.454;27.400;2022-09-09T07:44:05;100830.44;;;39.98;18.17
38303;BME280;24103;42.454;27.400;2022-09-09T07:46:31;100830.16;;;39.53;19.88
38303;BME280;24103;42.454;27.400;2022-09-09T07:48:57;100836.97;;;38.41;18.26
38303;BME280;24103;42.454;27.400;2022-09-09T07:51:34;100830.34;;;36.63;18.96
38303;BME280;24103;42.454;27.400;2022-09-09T07:54:05;100837.06;;;34.91;20.93
38303;BME280;24103;42.454;27.400;2022-09-09T07:56:32;100836.88;;;32.65;22.45
38303;BME280;24103;42.454;27.400;2022-09-09T07:58:58;100840.81;;;31.50;23.72
38303;BME280;24103;42.454;27.400;2022-09-09T08:01:25;100854.78;;;30.76;26.40
38303;BME280;24103;42.454;27.400;2022-09-09T08:03:59;100850.88;;;30.39;26.45
38303;BME280;24103;42.454;27.400;2022-09-09T08:06:30;100854.03;;;30.02;28.12
38303;BME280;24103;42.454;27.400;2022-09-09T08:08:56;100854.19;;;29.47;28.14
38303;BME280;24103;42.454;27.400;2022-09-09T08:11:23;100844.38;;;28.98;29.25
38303;BME280;24103;42.454;27.400;2022-09-09T08:13:50;100854.72;;;28.18;30.88
38303;BME280;24103;42.454;27.400;2022-09-09T08:16:19;100856.03;;;28.22;32.25
38303;BME280;24103;42.454;27.400;2022-09-09T08:18:47;100852.22;;;28.16;31.73
38303;BME280;24103;42.454;27.400;2022-09-09T08:21:16;100843.38;;;28.07;32.84
38303;BME280;24103;42.454;27.400;2022-09-09T08:23:45;100843.28;;;28.22;32.55
38303;BME280;24103;42.454;27.400;2022-09-09T08:26:15;100841.75;;;27.91;33.40
38303;BME280;24103;42.454;27.400;2022-09-09T08:28:42;100848.03;;;27.92;33.87
38303;BME280;24103;42.454;27.400;2022-09-09T08:31:14;100846.88;;;28.01;33.62
38303;BME280;24103;42.454;27.400;2022-09-09T08:33:41;100848.72;;;28.22;34.29
38303;BME280;24103;42.454;27.400;2022-09-09T08:36:10;100827.28;;;27.84;33.90
38303;BME280;24103;42.454;27.400;2022-09-09T08:38:36;100840.47;;;28.09;33.69
38303;BME280;24103;42.454;27.400;2022-09-09T08:47:14;100836.53;;;27.68;36.46
38303;BME280;24103;42.454;27.400;2022-09-09T08:49:47;100836.31;;;27.91;37.06
38303;BME280;24103;42.454;27.400;2022-09-09T08:52:25;100838.91;;;28.00;36.11
38303;BME280;24103;42.454;27.400;2022-09-09T08:55:01;100833.31;;;27.58;37.38
38303;BME280;24103;42.454;27.400;2022-09-09T08:57:30;100838.03;;;27.71;37.02
38303;BME280;24103;42.454;27.400;2022-09-09T08:59:57;100831.16;;;27.97;36.88
38303;BME280;24103;42.454;27.400;2022-09-09T09:02:44;100832.28;;;27.81;37.27
38303;BME280;24103;42.454;27.400;2022-09-09T09:05:26;100822.44;;;27.80;36.79
38303;BME280;24103;42.454;27.400;2022-09-09T09:10:48;100821.69;;;28.14;37.33
38303;BME280;24103;42.454;27.400;2022-09-09T09:18:51;100833.53;;;28.06;38.72
38303;BME280;24103;42.454;27.400;2022-09-09T09:24:07;100834.28;;;27.72;40.89
38303;BME280;24103;42.454;27.400;2022-09-09T09:26:41;100846.03;;;27.36;42.70
38303;BME280;24103;42.454;27.400;2022-09-09T09:29:19;100846.63;;;27.16;44.52
38303;BME280;24103;42.454;27.400;2022-09-09T09:31:53;100854.91;;;26.78;47.27
38303;BME280;24103;42.454;27.400;2022-09-09T09:34:20;100864.50;;;26.51;51.10
38303;BME280;24103;42.454;27.400;2022-09-09T09:36:53;100866.91;;;26.31;51.65
38303;BME280;24103;42.454;27.400;2022-09-09T09:39:32;100878.16;;;26.20;56.75
38303;BME280;24103;42.454;27.400;2022-09-09T09:42:11;100868.59;;;26.32;56.09
38303;BME280;24103;42.454;27.400;2022-09-09T09:44:40;100865.78;;;26.25;61.91
38303;BME280;24103;42.454;27.400;2022-09-09T09:47:13;100861.75;;;26.36;61.44
38303;BME280;24103;42.454;27.400;2022-09-09T09:49:39;100870.56;;;26.38;61.56
38303;BME280;24103;42.454;27.400;2022-09-09T09:52:06;100850.09;;;26.36;59.66
38303;BME280;24103;42.454;27.400;2022-09-09T09:54:37;100853.28;;;26.54;60.42
38303;BME280;24103;42.454;27.400;2022-09-09T09:57:11;100845.81;;;26.71;61.82
38303;BME280;24103;42.454;27.400;2022-09-09T09:59:37;100839.81;;;26.61;63.60
38303;BME280;24103;42.454;27.400;2022-09-09T10:02:22;100845.88;;;26.48;63.81
38303;BME280;24103;42.454;27.400;2022-09-09T10:05:15;100849.06;;;26.22;67.41
38303;BME280;24103;42.454;27.400;2022-09-09T10:07:41;100850.72;;;26.23;65.40
38303;BME280;24103;42.454;27.400;2022-09-09T10:10:13;100858.38;;;26.19;68.24
38303;BME280;24103;42.454;27.400;2022-09-09T10:17:47;100856.59;;;26.11;75.02
38303;BME280;24103;42.454;27.400;2022-09-09T10:20:42;100853.50;;;26.15;75.17
38303;BME280;24103;42.454;27.400;2022-09-09T10:39:49;100852.25;;;26.55;73.74
38303;BME280;24103;42.454;27.400;2022-09-09T10:42:26;100858.41;;;26.49;73.22
38303;BME280;24103;42.454;27.400;2022-09-09T10:45:19;100858.50;;;26.41;73.51
38303;BME280;24103;42.454;27.400;2022-09-09T10:50:42;100851.34;;;26.63;76.43
38303;BME280;24103;42.454;27.400;2022-09-09T10:56:05;100842.50;;;27.06;76.74
38303;BME280;24103;42.454;27.400;2022-09-09T10:58:37;100843.41;;;26.91;77.38
38303;BME280;24103;42.454;27.400;2022-09-09T11:01:14;100839.81;;;26.91;77.63
38303;BME280;24103;42.454;27.400;2022-09-09T11:03:42;100842.19;;;26.79;77.34
38303;BME280;24103;42.454;27.400;2022-09-09T11:06:15;100854.34;;;26.68;80.27
38303;BME280;24103;42.454;27.400;2022-09-09T11:08:42;100846.66;;;26.87;77.21
38303;BME280;24103;42.454;27.400;2022-09-09T11:16:42;100821.38;;;27.16;73.62
38303;BME280;24103;42.454;27.400;2022-09-09T11:19:34;100816.00;;;27.37;70.85
38303;BME280;24103;42.454;27.400;2022-09-09T11:22:03;100797.97;;;27.51;68.56
38303;BME280;24103;42.454;27.400;2022-09-09T11:24:38;100800.22;;;27.69;67.73
38303;BME280;24103;42.454;27.400;2022-09-09T11:29:53;100795.53;;;27.85;66.99
38303;BME280;24103;42.454;27.400;2022-09-09T11:40:23;100788.75;;;27.46;69.20
38303;BME280;24103;42.454;27.400;2022-09-09T11:42:49;100774.13;;;27.47;69.02
38303;BME280;24103;42.454;27.400;2022-09-09T11:45:28;100775.81;;;27.48;68.34
38303;BME280;24103;42.454;27.400;2022-09-09T11:47:59;100777.63;;;27.62;68.79
38303;BME280;24103;42.454;27.400;2022-09-09T11:52:51;100779.28;;;27.63;67.52
38303;BME280;24103;42.454;27.400;2022-09-09T11:55:32;100766.75;;;27.62;67.71
38303;BME280;24103;42.454;27.400;2022-09-09T11:58:18;100765.38;;;27.73;65.02
38303;BME280;24103;42.454;27.400;2022-09-09T12:00:48;100761.81;;;27.72;65.03
38303;BME280;24103;42.454;27.400;2022-09-09T12:06:25;100748.78;;;28.18;61.17
38303;BME280;24103;42.454;27.400;2022-09-09T12:08:58;100750.59;;;28.04;61.21
38303;BME280;24103;42.454;27.400;2022-09-09T12:11:30;100754.81;;;28.13;60.39
38303;BME280;24103;42.454;27.400;2022-09-09T12:13:58;100738.94;;;28.10;59.12
38303;BME280;24103;42.454;27.400;2022-09-09T12:19:03;100748.66;;;27.98;59.75
38303;BME280;24103;42.454;27.400;2022-09-09T12:21:38;100744.91;;;27.99;58.64
38303;BME280;24103;42.454;27.400;2022-09-09T12:24:13;100724.97;;;27.91;58.68
38303;BME280;24103;42.454;27.400;2022-09-09T12:29:26;100714.31;;;27.90;58.09
38303;BME280;24103;42.454;27.400;2022-09-09T12:34:44;100718.00;;;28.04;58.39
38303;BME280;24103;42.454;27.400;2022-09-09T12:40:05;100710.53;;;28.12;56.35
38303;BME280;24103;42.454;27.400;2022-09-09T12:42:31;100702.63;;;28.24;55.90
38303;BME280;24103;42.454;27.400;2022-09-09T12:45:02;100711.78;;;28.10;55.54
38303;BME280;24103;42.454;27.400;2022-09-09T12:47:38;100696.09;;;28.12;56.28
38303;BME280;24103;42.454;27.400;2022-09-09T12:50:42;100707.66;;;27.92;57.70
38303;BME280;24103;42.454;27.400;2022-09-09T12:53:12;100704.84;;;27.79;57.75
38303;BME280;24103;42.454;27.400;2022-09-09T12:55:50;100702.69;;;27.68;58.68
38303;BME280;24103;42.454;27.400;2022-09-09T12:58:18;100696.22;;;27.69;58.57
38303;BME280;24103;42.454;27.400;2022-09-09T13:00:52;100700.44;;;27.78;57.11
38303;BME280;24103;42.454;27.400;2022-09-09T13:03:21;100691.91;;;27.81;56.76
38303;BME280;24103;42.454;27.400;2022-09-09T13:05:47;100694.84;;;27.51;56.78
38303;BME280;24103;42.454;27.400;2022-09-09T13:08:14;100698.38;;;27.52;57.06
38303;BME280;24103;42.454;27.400;2022-09-09T13:13:16;100691.88;;;27.74;55.41
38303;BME280;24103;42.454;27.400;2022-09-09T13:15:54;100679.31;;;27.73;54.85
38303;BME280;24103;42.454;27.400;2022-09-09T13:18:29;100681.00;;;27.74;54.60
38303;BME280;24103;42.454;27.400;2022-09-09T13:20:56;100688.56;;;27.79;55.47
38303;BME280;24103;42.454;27.400;2022-09-09T13:23:31;100695.47;;;27.82;55.98
38303;BME280;24103;42.454;27.400;2022-09-09T13:26:00;100678.69;;;27.71;55.25
38303;BME280;24103;42.454;27.400;2022-09-09T13:28:29;100693.13;;;27.72;55.08
38303;BME280;24103;42.454;27.400;2022-09-09T13:30:59;100687.38;;;27.60;54.29
38303;BME280;24103;42.454;27.400;2022-09-09T13:33:38;100672.75;;;27.54;53.43
38303;BME280;24103;42.454;27.400;2022-09-09T13:36:07;100666.97;;;27.64;54.15
38303;BME280;24103;42.454;27.400;2022-09-09T13:38:40;100666.13;;;27.64;54.36
38303;BME280;24103;42.454;27.400;2022-09-09T13:41:22;100657.53;;;27.60;54.22
38303;BME280;24103;42.454;27.400;2022-09-09T13:43:49;100660.75;;;27.70;54.48
38303;BME280;24103;42.454;27.400;2022-09-09T13:46:34;100658.47;;;27.74;50.93
38303;BME280;24103;42.454;27.400;2022-09-09T13:49:23;100652.44;;;27.79;51.58
38303;BME280;24103;42.454;27.400;2022-09-09T13:51:51;100654.03;;;27.66;51.40
38303;BME280;24103;42.454;27.400;2022-09-09T13:54:20;100645.44;;;27.63;51.03
38303;BME280;24103;42.454;27.400;2022-09-09T13:56:46;100653.44;;;27.71;51.23
38303;BME280;24103;42.454;27.400;2022-09-09T13:59:14;100646.13;;;27.71;51.25
38303;BME280;24103;42.454;27.400;2022-09-09T14:01:40;100643.41;;;27.71;50.31
38303;BME280;24103;42.454;27.400;2022-09-09T14:04:07;100643.56;;;27.63;50.04
38303;BME280;24103;42.454;27.400;2022-09-09T14:06:33;100655.66;;;27.61;51.84
38303;BME280;24103;42.454;27.400;2022-09-09T14:09:02;100662.13;;;27.60;52.25
38303;BME280;24103;42.454;27.400;2022-09-09T14:11:28;100656.50;;;27.61;54.61
38303;BME280;24103;42.454;27.400;2022-09-09T14:13:53;100651.06;;;27.61;55.53
38303;BME280;24103;42.454;27.400;2022-09-09T14:16:19;100649.13;;;27.55;55.85
38303;BME280;24103;42.454;27.400;2022-09-09T14:18:47;100645.75;;;27.46;55.71
38303;BME280;24103;42.454;27.400;2022-09-09T14:21:12;100654.66;;;27.40;55.93
38303;BME280;24103;42.454;27.400;2022-09-09T14:23:38;100652.47;;;27.29;57.18
38303;BME280;24103;42.454;27.400;2022-09-09T14:26:05;100651.28;;;27.10;57.31
38303;BME280;24103;42.454;27.400;2022-09-09T14:28:31;100651.78;;;26.98;58.03
38303;BME280;24103;42.454;27.400;2022-09-09T14:31:02;100642.38;;;26.94;56.13
38303;BME280;24103;42.454;27.400;2022-09-09T14:33:29;100651.22;;;27.03;55.85
38303;BME280;24103;42.454;27.400;2022-09-09T14:35:59;100638.28;;;27.05;54.07
38303;BME280;24103;42.454;27.400;2022-09-09T14:38:29;100633.88;;;27.04;52.73
38303;BME280;24103;42.454;27.400;2022-09-09T14:40:55;100637.03;;;27.01;52.57
38303;BME280;24103;42.454;27.400;2022-09-09T14:43:21;100632.56;;;26.93;50.31
38303;BME280;24103;42.454;27.400;2022-09-09T14:45:47;100639.44;;;26.96;52.70
38303;BME280;24103;42.454;27.400;2022-09-09T14:48:14;100638.16;;;26.92;52.62
38303;BME280;24103;42.454;27.400;2022-09-09T14:50:41;100638.88;;;26.79;50.37
38303;BME280;24103;42.454;27.400;2022-09-09T14:53:07;100625.38;;;26.85;49.24
38303;BME280;24103;42.454;27.400;2022-09-09T14:55:34;100620.72;;;26.79;48.31
38303;BME280;24103;42.454;27.400;2022-09-09T14:57:59;100620.09;;;26.77;48.33
38303;BME280;24103;42.454;27.400;2022-09-09T15:00:25;100610.13;;;26.78;48.29
38303;BME280;24103;42.454;27.400;2022-09-09T15:02:54;100609.38;;;26.69;48.89
38303;BME280;24103;42.454;27.400;2022-09-09T15:05:20;100610.63;;;26.66;49.54